createdAt,value
2022-09-01T00:00:03.463Z,66.61
2022-09-01T00:01:03.112Z,66.33
2022-09-01T00:02:03.092Z,66.23
2022-09-01T00:03:03.096Z,66.23
2022-09-01T00:04:03.095Z,66.52
2022-09-01T00:05:02.941Z,67.00
2022-09-01T00:06:02.904Z,66.61
2022-09-01T00:07:02.847Z,66.81
2022-09-01T00:08:02.802Z,67.00
2022-09-01T00:09:02.769Z,66.71
2022-09-01T00:10:02.716Z,66.71
2022-09-01T00:11:02.674Z,66.61
2022-09-01T00:12:02.628Z,67.10
2022-09-01T00:13:02.585Z,67.10
2022-09-01T00:14:02.541Z,66.71
2022-09-01T00:15:02.499Z,67.19
2022-09-01T00:16:02.495Z,66.91
2022-09-01T00:17:02.410Z,67.48
2022-09-01T00:18:02.365Z,66.81
2022-09-01T00:19:02.324Z,66.97
2022-09-01T00:20:02.278Z,67.10
2022-09-01T00:21:02.234Z,66.77
2022-09-01T00:22:02.196Z,67.45
2022-09-01T00:23:02.148Z,67.10
2022-09-01T00:24:02.108Z,67.35
2022-09-01T00:25:02.118Z,67.83
2022-09-01T00:26:02.019Z,67.54
2022-09-01T00:27:01.974Z,67.54
2022-09-01T00:28:01.925Z,67.35
2022-09-01T00:29:01.888Z,67.93
2022-09-01T00:30:01.842Z,67.83
2022-09-01T00:31:02.051Z,67.74
2022-09-01T00:32:01.756Z,67.74
2022-09-01T00:33:01.709Z,67.83
2022-09-01T00:34:01.665Z,68.60
2022-09-01T00:35:01.621Z,68.31
2022-09-01T00:36:01.578Z,68.02
2022-09-01T00:37:01.536Z,67.83
2022-09-01T00:38:01.489Z,67.93
2022-09-01T00:39:01.449Z,67.64
2022-09-01T00:40:01.401Z,68.21
2022-09-01T00:41:01.361Z,68.21
2022-09-01T00:42:01.322Z,68.41
2022-09-01T00:43:01.473Z,68.31
2022-09-01T00:44:01.227Z,68.31
2022-09-01T00:45:01.185Z,68.60
2022-09-01T00:46:01.213Z,68.51
2022-09-01T00:47:01.093Z,68.60
2022-09-01T00:48:01.052Z,68.79
2022-09-01T00:49:01.008Z,68.21
2022-09-01T00:50:00.963Z,68.51
2022-09-01T00:51:00.923Z,68.89
2022-09-01T00:52:00.876Z,68.85
2022-09-01T00:53:00.834Z,68.95
2022-09-01T00:54:00.797Z,69.05
2022-09-01T00:55:00.744Z,69.08
2022-09-01T00:56:00.706Z,69.72
2022-09-01T00:57:00.660Z,69.24
2022-09-01T00:58:00.611Z,69.24
2022-09-01T00:59:00.567Z,69.34
2022-09-01T01:00:00.527Z,69.24
2022-09-01T01:01:00.616Z,69.05
2022-09-01T01:02:00.439Z,68.85
2022-09-01T01:03:00.490Z,68.95
2022-09-01T01:04:00.351Z,69.14
2022-09-01T01:06:00.260Z,69.62
2022-09-01T01:07:00.214Z,69.72
2022-09-01T01:08:00.177Z,69.14
2022-09-01T01:09:00.132Z,69.62
2022-09-01T01:10:00.091Z,69.53
2022-09-01T01:11:00.039Z,69.05
2022-09-01T01:11:59.999Z,69.53
2022-09-01T01:12:59.960Z,69.81
2022-09-01T01:13:59.913Z,69.53
2022-09-01T01:14:59.863Z,69.62
2022-09-01T01:15:59.822Z,69.72
2022-09-01T01:16:59.827Z,69.24
2022-09-01T01:17:59.738Z,69.53
2022-09-01T01:18:59.688Z,69.91
2022-09-01T01:19:59.647Z,69.72
2022-09-01T01:20:59.599Z,70.01
2022-09-01T01:21:59.556Z,70.01
2022-09-01T01:28:04.559Z,70.49
2022-09-01T01:29:04.510Z,70.58
2022-09-01T01:30:04.473Z,70.78
2022-09-01T01:31:04.458Z,70.58
2022-09-01T01:32:04.381Z,70.39
2022-09-01T01:33:04.336Z,70.87
2022-09-01T01:34:04.294Z,71.06
2022-09-01T01:35:04.248Z,71.31
2022-09-01T01:36:04.213Z,71.22
2022-09-01T01:37:04.158Z,71.22
2022-09-01T01:38:04.117Z,71.06
2022-09-01T01:39:04.274Z,71.22
2022-09-01T01:40:04.104Z,71.41
2022-09-01T01:41:03.982Z,71.16
2022-09-01T01:42:03.941Z,71.41
2022-09-01T01:43:03.897Z,71.70
2022-09-01T01:44:03.852Z,71.51
2022-09-01T01:45:03.807Z,71.41
2022-09-01T01:46:03.803Z,71.61
2022-09-01T01:47:03.717Z,71.70
2022-09-01T01:48:03.679Z,71.70
2022-09-01T01:49:03.629Z,71.61
2022-09-01T01:50:03.596Z,72.37
2022-09-01T01:51:03.540Z,71.70
2022-09-01T01:52:03.701Z,71.61
2022-09-01T01:53:03.450Z,72.18
2022-09-01T01:54:03.419Z,72.18
2022-09-01T01:55:05.302Z,72.18
2022-09-01T01:56:03.322Z,71.89
2022-09-01T01:57:03.275Z,71.80
2022-09-01T01:58:03.232Z,72.08
2022-09-01T01:59:03.186Z,72.08
2022-09-01T02:00:03.146Z,71.98
2022-09-01T02:01:03.138Z,71.98
2022-09-01T02:02:03.143Z,71.80
2022-09-01T02:03:03.011Z,72.18
2022-09-01T02:04:02.967Z,72.56
2022-09-01T02:05:02.926Z,72.08
2022-09-01T02:06:02.878Z,72.37
2022-09-01T02:07:02.841Z,72.47
2022-09-01T02:08:02.795Z,72.28
2022-09-01T02:09:02.745Z,72.56
2022-09-01T02:10:02.701Z,72.18
2022-09-01T02:11:02.657Z,72.18
2022-09-01T02:12:02.625Z,72.47
2022-09-01T02:13:02.571Z,72.28
2022-09-01T02:14:02.524Z,72.47
2022-09-01T02:15:02.480Z,72.18
2022-09-01T02:16:02.437Z,72.56
2022-09-01T02:17:02.453Z,72.47
2022-09-01T02:18:05.197Z,72.28
2022-09-01T02:20:02.470Z,72.63
2022-09-01T02:21:02.215Z,72.81
2022-09-01T02:22:02.170Z,72.53
2022-09-01T02:23:02.128Z,72.85
2022-09-01T02:24:02.130Z,72.53
2022-09-01T02:25:02.038Z,72.75
2022-09-01T02:26:17.986Z,72.53
2022-09-01T02:27:01.950Z,72.85
2022-09-01T02:28:01.904Z,73.00
2022-09-01T02:29:01.860Z,72.81
2022-09-01T02:30:01.820Z,72.72
2022-09-01T02:31:01.862Z,72.63
2022-09-01T02:32:01.726Z,72.81
2022-09-01T02:33:01.682Z,72.81
2022-09-01T02:34:01.637Z,72.81
2022-09-01T02:35:01.600Z,72.53
2022-09-01T02:36:01.549Z,72.53
2022-09-01T02:37:01.505Z,72.63
2022-09-01T02:38:01.459Z,72.72
2022-09-01T02:39:01.416Z,73.39
2022-09-01T02:40:01.412Z,73.49
2022-09-01T02:41:01.327Z,73.49
2022-09-01T02:42:01.394Z,73.58
2022-09-01T02:43:01.239Z,73.39
2022-09-01T02:44:01.195Z,73.58
2022-09-01T02:45:02.658Z,73.39
2022-09-01T02:46:01.147Z,73.68
2022-09-01T02:47:01.065Z,73.39
2022-09-01T02:48:01.018Z,72.63
2022-09-01T02:49:00.984Z,73.49
2022-09-01T02:50:00.928Z,73.00
2022-09-01T02:51:00.888Z,72.81
2022-09-01T02:52:00.837Z,73.30
2022-09-01T02:53:03.794Z,73.20
2022-09-01T02:54:00.748Z,73.49
2022-09-01T02:55:00.707Z,73.30
2022-09-01T02:56:00.661Z,73.39
2022-09-01T02:57:00.618Z,73.68
2022-09-01T02:58:00.573Z,73.20
2022-09-01T02:59:00.528Z,73.30
2022-09-01T03:00:00.484Z,73.20
2022-09-01T03:01:00.546Z,73.30
2022-09-01T03:02:00.395Z,73.20
2022-09-01T03:03:00.351Z,73.20
2022-09-01T03:04:00.307Z,73.30
2022-09-01T03:05:00.386Z,73.68
2022-09-01T03:06:00.215Z,73.87
2022-09-01T03:07:00.173Z,73.93
2022-09-01T03:08:00.576Z,74.12
2022-09-01T03:09:00.105Z,74.31
2022-09-01T03:10:00.039Z,73.87
2022-09-01T03:10:59.994Z,73.68
2022-09-01T03:11:59.949Z,73.83
2022-09-01T03:12:59.906Z,73.87
2022-09-01T03:13:59.865Z,74.12
2022-09-01T03:14:59.818Z,74.16
2022-09-01T03:15:59.769Z,74.02
2022-09-01T03:16:59.753Z,74.31
2022-09-01T03:17:59.682Z,74.31
2022-09-01T03:18:59.642Z,74.51
2022-09-01T03:19:59.593Z,74.02
2022-09-01T03:20:59.552Z,74.31
2022-09-01T03:21:59.501Z,74.51
2022-09-01T03:22:59.460Z,74.31
2022-09-01T03:23:59.416Z,74.31
2022-09-01T03:24:59.378Z,74.31
2022-09-01T03:25:59.350Z,74.22
2022-09-01T03:26:59.282Z,74.22
2022-09-01T03:27:59.235Z,74.41
2022-09-01T03:28:59.206Z,74.60
2022-09-01T03:29:59.146Z,74.98
2022-09-01T03:30:59.112Z,75.37
2022-09-01T03:31:59.129Z,74.41
2022-09-01T03:32:59.013Z,75.18
2022-09-01T03:33:58.972Z,74.89
2022-09-01T03:34:58.926Z,75.08
2022-09-01T03:35:58.880Z,75.18
2022-09-01T03:36:58.837Z,75.65
2022-09-01T03:37:58.995Z,75.27
2022-09-01T03:38:58.746Z,75.37
2022-09-01T03:39:58.701Z,74.98
2022-09-01T03:40:58.661Z,75.37
2022-09-01T03:41:58.611Z,75.18
2022-09-01T03:42:58.582Z,74.89
2022-09-01T03:43:58.726Z,75.08
2022-09-01T03:44:58.527Z,75.56
2022-09-01T03:45:58.472Z,75.08
2022-09-01T03:46:58.403Z,75.75
2022-09-01T03:47:58.382Z,75.43
2022-09-01T03:48:58.302Z,75.56
2022-09-01T03:49:58.254Z,75.85
2022-09-01T03:50:58.211Z,75.95
2022-09-01T03:51:58.170Z,76.19
2022-09-01T03:52:58.122Z,76.14
2022-09-01T03:53:59.142Z,76.00
2022-09-01T03:54:58.036Z,76.00
2022-09-01T03:55:57.988Z,76.04
2022-09-01T03:56:57.943Z,76.19
2022-09-01T03:57:57.898Z,76.71
2022-09-01T03:58:57.855Z,76.19
2022-09-01T03:59:57.808Z,76.57
2022-09-01T04:00:57.774Z,76.77
2022-09-01T04:01:57.816Z,76.77
2022-09-01T04:02:57.677Z,76.96
2022-09-01T04:03:57.629Z,76.86
2022-09-01T04:04:57.589Z,76.86
2022-09-01T04:05:57.541Z,77.06
2022-09-01T04:06:57.510Z,77.34
2022-09-01T04:07:57.454Z,76.86
2022-09-01T04:08:57.405Z,77.15
2022-09-01T04:09:57.359Z,77.44
2022-09-01T04:10:57.770Z,77.53
2022-09-01T04:11:57.575Z,77.63
2022-09-01T04:13:57.276Z,77.44
2022-09-01T04:14:57.140Z,77.25
2022-09-01T04:15:57.095Z,77.06
2022-09-01T04:16:57.119Z,77.15
2022-09-01T04:17:57.006Z,77.44
2022-09-01T04:18:56.961Z,77.44
2022-09-01T04:19:56.917Z,77.73
2022-09-01T04:20:56.873Z,77.63
2022-09-01T04:21:56.831Z,77.73
2022-09-01T04:22:56.780Z,77.63
2022-09-01T04:23:56.735Z,78.02
2022-09-01T04:24:56.689Z,77.82
2022-09-01T04:25:56.647Z,78.30
2022-09-01T04:26:56.602Z,78.45
2022-09-01T04:27:56.559Z,78.49
2022-09-01T04:28:56.753Z,78.45
2022-09-01T04:29:57.791Z,78.45
2022-09-01T04:30:56.430Z,78.36
2022-09-01T04:31:56.487Z,78.64
2022-09-01T04:32:56.579Z,78.64
2022-09-01T04:33:56.292Z,78.84
2022-09-01T04:34:56.266Z,78.64
2022-09-01T04:35:56.199Z,78.64
2022-09-01T04:36:56.151Z,78.64
2022-09-01T04:37:56.109Z,78.93
2022-09-01T04:38:56.064Z,78.93
2022-09-01T04:39:57.060Z,79.03
2022-09-01T04:40:55.972Z,79.41
2022-09-01T04:41:55.930Z,79.60
2022-09-01T04:42:55.882Z,79.22
2022-09-01T04:43:55.845Z,79.22
2022-09-01T04:44:55.793Z,79.70
2022-09-01T04:45:55.837Z,79.51
2022-09-01T04:46:55.705Z,79.41
2022-09-01T04:47:55.662Z,79.22
2022-09-01T04:48:55.614Z,79.03
2022-09-01T04:49:55.568Z,79.13
2022-09-01T04:50:55.523Z,78.93
2022-09-01T04:51:55.479Z,79.51
2022-09-01T04:52:55.432Z,79.32
2022-09-01T04:53:55.393Z,79.32
2022-09-01T04:54:55.347Z,79.80
2022-09-01T04:55:55.300Z,79.60
2022-09-01T04:56:55.252Z,79.70
2022-09-01T04:58:55.165Z,79.70
2022-09-01T04:59:55.121Z,79.99
2022-09-01T05:00:55.099Z,79.60
2022-09-01T05:01:55.089Z,80.08
2022-09-01T05:02:54.986Z,80.04
2022-09-01T05:03:54.937Z,80.04
2022-09-01T05:04:54.895Z,79.89
2022-09-01T05:05:54.847Z,80.52
2022-09-01T05:06:54.804Z,80.18
2022-09-01T05:07:54.760Z,80.24
2022-09-01T05:08:54.716Z,80.33
2022-09-01T05:09:59.246Z,80.14
2022-09-01T05:10:54.631Z,80.14
2022-09-01T05:11:54.579Z,80.33
2022-09-01T05:12:54.535Z,80.52
2022-09-01T05:13:54.488Z,80.52
2022-09-01T05:14:54.449Z,80.14
2022-09-01T05:15:54.429Z,80.90
2022-09-01T05:16:54.355Z,81.00
2022-09-01T05:17:54.310Z,81.00
2022-09-01T05:18:54.264Z,81.00
2022-09-01T05:19:54.218Z,80.81
2022-09-01T05:20:54.177Z,80.90
2022-09-01T05:21:54.130Z,80.71
2022-09-01T05:22:54.083Z,80.71
2022-09-01T05:23:54.039Z,80.71
2022-09-01T05:24:54.908Z,80.90
2022-09-01T05:25:53.948Z,80.90
2022-09-01T05:26:53.903Z,80.43
2022-09-01T05:27:53.857Z,80.62
2022-09-01T05:28:53.817Z,80.85
2022-09-01T05:29:53.766Z,80.94
2022-09-01T05:30:53.722Z,80.81
2022-09-01T05:31:53.727Z,81.00
2022-09-01T05:32:53.632Z,80.66
2022-09-01T05:33:53.585Z,80.66
2022-09-01T05:34:53.543Z,80.94
2022-09-01T05:35:53.495Z,80.47
2022-09-01T05:36:53.450Z,80.27
2022-09-01T05:37:53.407Z,79.80
2022-09-01T05:38:53.361Z,80.27
2022-09-01T05:39:53.314Z,79.89
2022-09-01T05:40:53.270Z,81.04
2022-09-01T05:41:53.224Z,80.47
2022-09-01T05:42:53.184Z,80.08
2022-09-01T05:43:57.790Z,80.47
2022-09-01T05:44:53.089Z,80.18
2022-09-01T05:46:06.079Z,80.08
2022-09-01T05:46:53.045Z,80.27
2022-09-01T05:47:52.959Z,80.18
2022-09-01T05:48:52.912Z,80.27
2022-09-01T05:49:52.865Z,80.18
2022-09-01T05:50:52.822Z,79.80
2022-09-01T05:51:52.776Z,80.08
2022-09-01T05:52:52.734Z,80.18
2022-09-01T05:53:52.706Z,80.08
2022-09-01T05:54:52.650Z,79.99
2022-09-01T05:55:52.599Z,79.93
2022-09-01T05:56:52.548Z,80.32
2022-09-01T05:57:52.507Z,80.51
2022-09-01T05:59:52.415Z,80.32
2022-09-01T06:00:52.376Z,79.83
2022-09-01T06:01:52.463Z,79.36
2022-09-01T06:02:52.458Z,79.64
2022-09-01T06:03:52.239Z,79.83
2022-09-01T06:04:52.209Z,79.36
2022-09-01T06:05:52.149Z,79.64
2022-09-01T06:07:08.543Z,79.55
2022-09-01T06:07:52.057Z,79.55
2022-09-01T06:08:52.009Z,79.64
2022-09-01T06:09:51.965Z,79.74
2022-09-01T06:10:51.923Z,79.64
2022-09-01T06:11:51.876Z,79.55
2022-09-01T06:12:53.968Z,79.64
2022-09-01T06:13:55.270Z,79.36
2022-09-01T06:14:51.741Z,79.45
2022-09-01T06:15:51.726Z,78.97
2022-09-01T06:16:51.652Z,79.36
2022-09-01T06:17:51.616Z,78.97
2022-09-01T06:18:51.562Z,79.74
2022-09-01T06:19:51.523Z,79.64
2022-09-01T06:20:51.468Z,79.16
2022-09-01T06:21:51.429Z,79.11
2022-09-01T06:22:51.381Z,79.36
2022-09-01T06:23:51.346Z,78.92
2022-09-01T06:24:55.694Z,79.01
2022-09-01T06:25:51.248Z,78.72
2022-09-01T06:26:51.203Z,78.63
2022-09-01T06:27:51.159Z,79.01
2022-09-01T06:28:51.112Z,78.82
2022-09-01T06:29:51.069Z,78.72
2022-09-01T06:30:51.022Z,78.53
2022-09-01T06:31:51.058Z,78.25
2022-09-01T06:32:50.932Z,77.67
2022-09-01T06:33:50.891Z,77.86
2022-09-01T06:34:50.843Z,77.86
2022-09-01T06:35:50.801Z,78.34
2022-09-01T06:36:50.752Z,78.15
2022-09-01T06:37:50.716Z,77.86
2022-09-01T06:38:50.664Z,77.76
2022-09-01T06:39:50.626Z,78.25
2022-09-01T06:40:51.264Z,78.44
2022-09-01T06:41:50.538Z,77.80
2022-09-01T06:42:50.488Z,77.48
2022-09-01T06:43:50.833Z,77.42
2022-09-01T06:44:50.404Z,77.42
2022-09-01T06:45:50.351Z,77.23
2022-09-01T06:46:50.373Z,77.51
2022-09-01T06:47:50.263Z,77.33
2022-09-01T06:48:50.225Z,77.04
2022-09-01T06:49:51.837Z,77.23
2022-09-01T06:51:50.085Z,76.84
2022-09-01T06:53:50.136Z,76.94
2022-09-01T06:54:49.952Z,76.56
2022-09-01T06:55:49.907Z,76.79
2022-09-01T06:56:51.740Z,76.56
2022-09-01T06:58:49.772Z,76.31
2022-09-01T06:59:49.731Z,76.59
2022-09-01T07:00:49.683Z,76.40
2022-09-01T07:02:49.648Z,76.12
2022-09-01T07:03:49.551Z,76.12
2022-09-01T07:04:49.506Z,75.45
2022-09-01T07:06:04.890Z,75.54
2022-09-01T07:09:53.332Z,75.29
2022-09-01T07:16:52.527Z,74.04
2022-09-01T07:17:48.931Z,74.04
2022-09-01T07:18:58.390Z,73.27
2022-09-01T07:19:49.085Z,73.56
2022-09-01T07:23:05.680Z,73.21
2022-09-01T07:24:09.067Z,73.21
2022-09-01T07:24:48.893Z,73.50
2022-09-01T07:26:48.548Z,73.41
2022-09-01T07:27:48.488Z,72.92
2022-09-01T07:28:48.445Z,72.92
2022-09-01T07:29:48.400Z,72.34
2022-09-01T07:30:48.608Z,72.34
2022-09-01T07:31:49.642Z,72.44
2022-09-01T07:32:48.270Z,72.38
2022-09-01T07:33:53.923Z,72.38
2022-09-01T07:34:49.189Z,71.91
2022-09-01T07:38:47.798Z,71.23
2022-09-01T07:38:49.607Z,71.61
2022-09-01T07:39:49.117Z,71.42
2022-09-01T07:42:31.866Z,74.96
2022-09-01T07:42:59.097Z,76.50
2022-09-01T07:43:47.786Z,71.36
2022-09-01T07:44:47.741Z,70.78
2022-09-01T07:45:48.050Z,71.17
2022-09-01T07:46:48.174Z,70.72
2022-09-01T07:47:54.957Z,70.43
2022-09-01T07:49:29.281Z,69.85
2022-09-01T07:50:24.209Z,69.28
2022-09-01T07:51:47.458Z,68.32
2022-09-01T07:52:47.391Z,68.60
2022-09-01T07:53:47.350Z,68.41
2022-09-01T07:54:47.308Z,67.07
2022-09-01T07:55:47.260Z,67.58
2022-09-01T07:56:47.218Z,67.29
2022-09-01T07:57:47.175Z,66.81
2022-09-01T07:58:47.129Z,66.91
2022-09-01T07:59:47.088Z,67.19
2022-09-01T08:00:47.044Z,67.42
2022-09-01T08:01:47.025Z,67.03
2022-09-01T08:02:46.979Z,67.23
2022-09-01T08:03:46.912Z,67.61
2022-09-01T08:04:46.873Z,67.23
2022-09-01T08:05:46.828Z,66.75
2022-09-01T08:06:46.799Z,66.75
2022-09-01T08:07:53.811Z,66.30
2022-09-01T08:08:46.701Z,66.01
2022-09-01T08:09:46.656Z,66.39
2022-09-01T08:10:48.977Z,66.11
2022-09-01T08:12:03.158Z,65.43
2022-09-01T08:12:46.543Z,64.86
2022-09-01T08:13:51.961Z,64.89
2022-09-01T08:14:46.439Z,64.79
2022-09-01T08:16:53.732Z,63.82
2022-09-01T08:17:53.499Z,63.67
2022-09-01T08:18:49.783Z,63.95
2022-09-01T08:19:46.226Z,63.37
2022-09-01T08:20:46.182Z,63.67
2022-09-01T08:21:46.345Z,63.76
2022-09-01T08:22:46.300Z,63.67
2022-09-01T08:23:46.055Z,63.47
2022-09-01T08:24:46.010Z,61.96
2022-09-01T08:25:45.969Z,60.99
2022-09-01T08:26:45.926Z,60.99
2022-09-01T08:27:45.886Z,60.89
2022-09-01T08:28:46.279Z,60.99
2022-09-01T08:29:45.799Z,60.41
2022-09-01T08:30:51.986Z,60.06
2022-09-01T08:31:45.733Z,60.25
2022-09-01T08:32:45.669Z,59.77
2022-09-01T08:33:45.630Z,59.77
2022-09-01T08:34:45.584Z,59.58
2022-09-01T08:35:45.553Z,58.51
2022-09-01T08:36:45.503Z,58.70
2022-09-01T08:37:45.462Z,58.06
2022-09-01T08:38:45.415Z,58.25
2022-09-01T08:39:45.376Z,57.48
2022-09-01T08:40:45.430Z,57.87
2022-09-01T08:41:47.034Z,58.09
2022-09-01T08:42:45.246Z,57.51
2022-09-01T08:43:45.210Z,57.41
2022-09-01T08:44:45.161Z,56.93
2022-09-01T08:45:45.124Z,56.35
2022-09-01T08:46:45.165Z,57.51
2022-09-01T08:48:22.100Z,57.31
2022-09-01T08:49:45.117Z,56.57
2022-09-01T08:50:44.910Z,56.18
2022-09-01T08:51:44.873Z,55.99
2022-09-01T08:52:44.825Z,56.28
2022-09-01T08:53:44.784Z,55.89
2022-09-01T08:54:45.453Z,55.79
2022-09-01T08:55:44.701Z,55.73
2022-09-01T08:56:44.658Z,55.73
2022-09-01T08:57:44.621Z,55.34
2022-09-01T08:58:44.585Z,54.17
2022-09-01T08:59:44.536Z,54.17
2022-09-01T09:00:44.499Z,53.99
2022-09-01T09:01:44.494Z,53.99
2022-09-01T09:02:44.509Z,53.81
2022-09-01T09:03:44.367Z,53.43
2022-09-01T09:04:44.326Z,53.72
2022-09-01T09:05:44.298Z,54.21
2022-09-01T09:06:44.240Z,54.01
2022-09-01T09:07:44.204Z,53.23
2022-09-01T09:08:44.159Z,53.23
2022-09-01T09:09:49.346Z,52.58
2022-09-01T09:10:44.078Z,53.45
2022-09-01T09:11:44.038Z,53.55
2022-09-01T09:12:50.140Z,52.78
2022-09-01T09:13:43.954Z,53.07
2022-09-01T09:14:43.911Z,53.07
2022-09-01T09:15:43.930Z,52.00
2022-09-01T09:16:43.830Z,52.39
2022-09-01T09:17:43.786Z,52.00
2022-09-01T09:18:54.840Z,52.42
2022-09-01T09:19:43.703Z,52.10
2022-09-01T09:20:43.663Z,52.22
2022-09-01T09:21:43.620Z,52.03
2022-09-01T09:22:43.611Z,51.45
2022-09-01T09:23:43.540Z,51.45
2022-09-01T09:24:43.494Z,51.45
2022-09-01T09:25:43.455Z,51.06
2022-09-01T09:26:43.491Z,50.19
2022-09-01T09:27:43.372Z,49.80
2022-09-01T09:28:43.329Z,49.92
2022-09-01T09:29:45.468Z,50.12
2022-09-01T09:30:43.316Z,49.92
2022-09-01T09:31:43.208Z,50.21
2022-09-01T09:33:15.016Z,49.92
2022-09-01T09:33:51.701Z,49.44
2022-09-01T09:34:43.083Z,49.34
2022-09-01T09:35:43.044Z,49.82
2022-09-01T09:36:43.002Z,50.21
2022-09-01T09:37:42.962Z,49.54
2022-09-01T09:38:44.088Z,49.54
2022-09-01T09:39:42.879Z,50.14
2022-09-01T09:41:07.546Z,49.66
2022-09-01T09:41:42.851Z,49.56
2022-09-01T09:42:42.756Z,49.17
2022-09-01T09:43:42.718Z,49.27
2022-09-01T09:44:42.673Z,49.17
2022-09-01T09:45:42.634Z,49.29
2022-09-01T09:46:43.665Z,48.80
2022-09-01T09:47:44.894Z,48.80
2022-09-01T09:48:42.514Z,48.80
2022-09-01T09:49:48.187Z,48.13
2022-09-01T09:50:42.427Z,48.71
2022-09-01T09:51:42.388Z,48.03
2022-09-01T09:52:42.345Z,48.42
2022-09-01T09:53:42.308Z,48.52
2022-09-01T09:54:42.265Z,48.13
2022-09-01T09:55:42.225Z,47.93
2022-09-01T09:56:42.183Z,46.77
2022-09-01T09:57:42.143Z,46.86
2022-09-01T09:58:42.101Z,46.98
2022-09-01T09:59:57.731Z,47.16
2022-09-01T10:00:42.017Z,47.93
2022-09-01T10:01:42.068Z,47.64
2022-09-01T10:02:41.938Z,46.89
2022-09-01T10:03:41.930Z,47.08
2022-09-01T10:04:41.857Z,47.28
2022-09-01T10:05:43.197Z,46.69
2022-09-01T10:06:41.776Z,46.89
2022-09-01T10:07:41.736Z,47.86
2022-09-01T10:08:41.703Z,46.50
2022-09-01T10:09:41.653Z,47.08
2022-09-01T10:10:41.615Z,46.89
2022-09-01T10:11:41.826Z,46.50
2022-09-01T10:12:41.531Z,46.41
2022-09-01T10:13:41.488Z,46.42
2022-09-01T10:14:52.326Z,46.42
2022-09-01T10:15:41.407Z,46.62
2022-09-01T10:16:41.614Z,46.52
2022-09-01T10:17:43.292Z,46.62
2022-09-01T10:18:41.286Z,46.91
2022-09-01T10:19:41.245Z,45.45
2022-09-01T10:20:41.207Z,45.36
2022-09-01T10:21:41.164Z,45.17
2022-09-01T10:22:41.139Z,45.45
2022-09-01T10:23:41.487Z,45.84
2022-09-01T10:24:44.711Z,45.48
2022-09-01T10:25:41.001Z,45.55
2022-09-01T10:26:40.975Z,44.70
2022-09-01T10:27:40.923Z,44.19
2022-09-01T10:28:40.881Z,44.00
2022-09-01T10:29:48.089Z,44.48
2022-09-01T10:30:40.878Z,44.48
2022-09-01T10:31:40.758Z,45.38
2022-09-01T10:32:49.187Z,44.99
2022-09-01T10:33:41.070Z,44.79
2022-09-01T10:34:42.132Z,45.57
2022-09-01T10:35:40.683Z,45.57
2022-09-01T10:36:40.556Z,45.28
2022-09-01T10:37:41.434Z,45.38
2022-09-01T10:38:40.479Z,45.48
2022-09-01T10:39:43.228Z,45.87
2022-09-01T10:40:43.923Z,46.45
2022-09-01T10:41:40.354Z,45.57
2022-09-01T10:42:40.559Z,45.77
2022-09-01T10:43:40.275Z,46.06
2022-09-01T10:44:40.235Z,46.37
2022-09-01T10:45:40.383Z,46.86
2022-09-01T10:46:41.178Z,46.57
2022-09-01T10:47:40.153Z,46.08
2022-09-01T10:48:55.438Z,45.60
2022-09-01T10:49:40.471Z,45.50
2022-09-01T10:50:39.993Z,46.86
2022-09-01T10:52:40.130Z,44.92
2022-09-01T10:53:39.873Z,45.40
2022-09-01T10:54:50.844Z,45.60
2022-09-01T10:55:39.816Z,45.62
2022-09-01T10:56:43.627Z,44.84
2022-09-01T10:57:42.231Z,44.84
2022-09-01T10:59:44.254Z,44.65
2022-09-01T11:00:40.045Z,45.23
2022-09-01T11:01:48.652Z,44.94
2022-09-01T11:02:42.429Z,45.42
2022-09-01T11:03:42.068Z,44.84
2022-09-01T11:04:39.551Z,45.52
2022-09-01T11:05:39.392Z,46.11
2022-09-01T11:06:39.352Z,45.52
2022-09-01T11:07:59.811Z,45.62
2022-09-01T11:08:39.274Z,45.72
2022-09-01T11:09:39.227Z,44.84
2022-09-01T11:10:39.196Z,44.84
2022-09-01T11:11:39.148Z,44.94
2022-09-01T11:12:39.108Z,45.72
2022-09-01T11:13:39.067Z,45.62
2022-09-01T11:14:39.032Z,45.35
2022-09-01T11:15:38.989Z,45.54
2022-09-01T11:16:47.019Z,44.86
2022-09-01T11:17:38.991Z,44.86
2022-09-01T11:18:39.047Z,44.76
2022-09-01T11:19:38.833Z,44.79
2022-09-01T11:20:38.791Z,44.86
2022-09-01T11:22:38.709Z,45.86
2022-09-01T11:23:39.381Z,45.47
2022-09-01T11:24:38.642Z,46.15
2022-09-01T11:25:39.476Z,45.47
2022-09-01T11:26:38.550Z,45.18
2022-09-01T11:27:38.515Z,44.69
2022-09-01T11:29:38.432Z,43.93
2022-09-01T11:30:38.399Z,44.42
2022-09-01T11:31:38.442Z,44.13
2022-09-01T11:32:38.313Z,44.23
2022-09-01T11:33:38.274Z,44.42
2022-09-01T11:34:38.233Z,44.03
2022-09-01T11:35:38.194Z,44.62
2022-09-01T11:36:38.156Z,44.32
2022-09-01T11:37:38.113Z,44.23
2022-09-01T11:38:38.078Z,44.32
2022-09-01T11:39:38.034Z,45.20
2022-09-01T11:40:38.042Z,44.44
2022-09-01T11:41:37.961Z,44.44
2022-09-01T11:42:37.917Z,43.85
2022-09-01T11:43:37.899Z,43.76
2022-09-01T11:44:37.837Z,43.85
2022-09-01T11:45:37.851Z,43.27
2022-09-01T11:46:37.762Z,43.08
2022-09-01T11:47:37.720Z,42.79
2022-09-01T11:48:37.682Z,43.08
2022-09-01T11:49:37.641Z,43.27
2022-09-01T11:50:37.604Z,43.18
2022-09-01T11:51:37.563Z,43.88
2022-09-01T11:52:37.522Z,44.37
2022-09-01T11:53:37.484Z,43.68
2022-09-01T11:54:37.447Z,42.90
2022-09-01T11:55:37.406Z,43.49
2022-09-01T11:56:37.366Z,43.00
2022-09-01T11:57:37.330Z,43.12
2022-09-01T11:58:37.292Z,42.54
2022-09-01T11:59:37.248Z,42.05
2022-09-01T12:00:37.209Z,42.44
2022-09-01T12:01:37.170Z,42.34
2022-09-01T12:02:37.390Z,43.32
2022-09-01T12:03:37.280Z,43.12
2022-09-01T12:04:37.053Z,42.73
2022-09-01T12:05:37.014Z,42.83
2022-09-01T12:06:36.975Z,42.46
2022-09-01T12:07:36.938Z,43.14
2022-09-01T12:08:36.900Z,42.65
2022-09-01T12:09:37.065Z,43.07
2022-09-01T12:10:36.820Z,41.99
2022-09-01T12:11:36.781Z,42.38
2022-09-01T12:12:36.755Z,41.89
2022-09-01T12:13:36.704Z,41.41
2022-09-01T12:15:02.106Z,41.33
2022-09-01T12:15:36.628Z,41.42
2022-09-01T12:16:36.656Z,41.91
2022-09-01T12:17:36.547Z,42.60
2022-09-01T12:18:36.518Z,41.52
2022-09-01T12:19:36.472Z,41.42
2022-09-01T12:20:36.449Z,40.86
2022-09-01T12:21:36.394Z,40.37
2022-09-01T12:22:36.357Z,40.16
2022-09-01T12:23:36.320Z,41.44
2022-09-01T12:24:36.483Z,41.05
2022-09-01T12:25:36.239Z,40.68
2022-09-01T12:26:36.202Z,40.31
2022-09-01T12:27:36.163Z,40.33
2022-09-01T12:28:36.124Z,39.84
2022-09-01T12:29:36.088Z,39.45
2022-09-01T12:30:36.058Z,38.59
2022-09-01T12:31:36.089Z,38.10
2022-09-01T12:32:35.971Z,38.12
2022-09-01T12:33:36.383Z,38.13
2022-09-01T12:34:35.896Z,36.98
2022-09-01T12:35:35.855Z,37.27
2022-09-01T12:36:35.901Z,37.38
2022-09-01T12:37:35.784Z,36.91
2022-09-01T12:38:35.744Z,36.24
2022-09-01T12:39:35.702Z,35.36
2022-09-01T12:40:35.686Z,34.59
2022-09-01T12:41:35.626Z,34.41
2022-09-01T12:42:41.056Z,34.13
2022-09-01T12:43:35.550Z,34.94
2022-09-01T12:44:35.513Z,33.97
2022-09-01T12:45:35.545Z,33.39
2022-09-01T12:46:35.437Z,33.98
2022-09-01T12:47:35.396Z,32.11
2022-09-01T12:48:35.359Z,32.51
2022-09-01T12:49:35.320Z,32.90
2022-09-01T12:50:35.285Z,33.39
2022-09-01T12:51:35.244Z,32.31
2022-09-01T12:52:35.207Z,31.88
2022-09-01T12:53:36.944Z,33.84
2022-09-01T12:54:35.138Z,33.80
2022-09-01T12:55:50.527Z,34.36
2022-09-01T12:56:35.056Z,34.56
2022-09-01T12:57:35.022Z,35.21
2022-09-01T12:58:35.005Z,35.60
2022-09-01T12:59:37.384Z,36.66
2022-09-01T13:00:34.905Z,36.45
2022-09-01T13:01:35.016Z,37.02
2022-09-01T13:02:35.084Z,37.12
2022-09-01T13:03:34.805Z,37.29
2022-09-01T13:04:34.757Z,37.87
2022-09-01T13:05:40.937Z,39.31
2022-09-01T13:06:34.674Z,39.39
2022-09-01T13:07:34.635Z,39.88
2022-09-01T13:08:34.594Z,39.57
2022-09-01T13:09:35.160Z,39.75
2022-09-01T13:10:34.517Z,40.31
2022-09-01T13:12:34.439Z,40.88
2022-09-01T13:13:34.400Z,41.07
2022-09-01T13:14:34.379Z,41.25
2022-09-01T13:15:34.324Z,41.44
2022-09-01T13:16:34.334Z,42.00
2022-09-01T13:17:34.245Z,42.10
2022-09-01T13:19:10.413Z,42.38
2022-09-01T13:19:34.170Z,42.38
2022-09-01T13:20:34.131Z,43.05
2022-09-01T13:21:34.122Z,42.45
2022-09-01T13:22:34.051Z,42.74
2022-09-01T13:23:34.011Z,43.23
2022-09-01T13:24:33.974Z,43.81
2022-09-01T13:25:33.935Z,43.71
2022-09-01T13:26:33.896Z,43.81
2022-09-01T13:27:33.874Z,43.60
2022-09-01T13:28:35.338Z,44.67